Terminal Aerodrome Forecast
Issued by NWS

Home | Current Version | Previous Version | Text Only | Print | Product List | Glossary On
Versions: 1 2 3 4 5 6 7 8 9 10 11 12 13 14
000
FTUS45 KGGW 240528
TAFGDV
TAF
KGDV 240528Z 2406/2506 16007KT P6SM SCT150
     FM241200 17009KT P6SM SCT120 WS020/19035KT
     FM242200 31024G36KT P6SM -SHRA VCTS BKN080CB
     FM250400 23006KT P6SM VCSH BKN100=

USA.gov is the U.S. government's official web portal to all federal, state and local government web resources and services.